Time;durP1;ratioP1;P1;durP2;ratioP2;P2;SDS_P1;SDS_P2;PMS_P1;PMS_P2;Temp;Humidity;BMP_temperature;BMP_pressure;BME280_temperature;BME280_humidity;BME280_pressure;Samples;Min_cycle;Max_cycle;Signal;HPM_P1;HPM_P2
2021/12/20 00:01:59;;;;;;;16.73;7.80;;;7.30;99.90;;;;;;5095569;28;20440;-78
2021/12/20 00:04:25;;;;;;;19.23;6.70;;;7.30;99.90;;;;;;5095311;28;20020;-79
2021/12/20 00:06:51;;;;;;;23.17;6.85;;;7.30;99.90;;;;;;5095327;28;20028;-79
2021/12/20 00:09:16;;;;;;;15.10;6.50;;;7.30;99.90;;;;;;5113705;28;20024;-79
2021/12/20 00:11:42;;;;;;;15.60;6.55;;;7.30;99.90;;;;;;5113941;28;20039;-79
2021/12/20 00:14:08;;;;;;;25.65;7.72;;;7.30;99.90;;;;;;5095188;28;20070;-79
2021/12/20 00:16:34;;;;;;;21.20;6.47;;;7.20;99.90;;;;;;5109952;28;20039;-79
2021/12/20 00:19:00;;;;;;;14.52;6.13;;;7.30;99.90;;;;;;5095309;28;20027;-79
2021/12/20 00:21:25;;;;;;;20.80;6.60;;;7.20;99.90;;;;;;5113309;28;20035;-79
2021/12/20 00:23:51;;;;;;;17.13;6.10;;;7.30;99.90;;;;;;5094644;28;20119;-79
2021/12/20 00:26:17;;;;;;;14.25;6.28;;;7.20;99.90;;;;;;5112419;28;20108;-79
2021/12/20 00:28:43;;;;;;;18.20;6.20;;;7.20;99.90;;;;;;5076502;28;20089;-79
2021/12/20 00:31:08;;;;;;;18.92;6.15;;;7.20;99.90;;;;;;5079766;28;20024;-79
2021/12/20 00:33:34;;;;;;;12.45;5.40;;;7.20;99.90;;;;;;5107774;28;20023;-79
2021/12/20 00:36:06;;;;;;;20.35;6.50;;;7.20;99.90;;;;;;5075760;28;20073;-79
2021/12/20 00:41:17;;;;;;;18.52;6.57;;;7.20;99.90;;;;;;5111075;28;20019;-79
2021/12/20 00:43:42;;;;;;;15.43;6.05;;;7.20;99.90;;;;;;5094848;28;20023;-79
2021/12/20 00:46:08;;;;;;;14.80;6.00;;;7.20;99.90;;;;;;5112907;28;20020;-79
2021/12/20 00:48:34;;;;;;;19.48;7.13;;;7.20;99.90;;;;;;5112756;28;20526;-79
2021/12/20 00:51:00;;;;;;;14.88;5.85;;;7.10;99.90;;;;;;5094170;28;20032;-79
2021/12/20 00:53:25;;;;;;;14.07;6.10;;;7.20;99.90;;;;;;5111613;28;20031;-79
2021/12/20 00:55:51;;;;;;;15.25;6.28;;;7.10;99.90;;;;;;5094376;28;20024;-79
2021/12/20 00:58:17;;;;;;;21.65;6.20;;;7.20;99.90;;;;;;5112432;28;20392;-79
2021/12/20 01:00:47;;;;;;;14.00;5.93;;;7.20;99.90;;;;;;5112475;28;20020;-79
2021/12/20 01:03:14;;;;;;;19.05;6.10;;;7.20;99.90;;;;;;5112462;28;20059;-79
2021/12/20 01:05:40;;;;;;;19.40;5.80;;;7.20;99.90;;;;;;5112739;28;20028;-79
2021/12/20 01:08:08;;;;;;;17.20;5.25;;;7.20;99.90;;;;;;5109569;28;20028;-79
2021/12/20 01:10:37;;;;;;;11.65;5.28;;;7.20;99.90;;;;;;5074401;28;20028;-79
2021/12/20 01:13:03;;;;;;;14.95;4.78;;;7.10;99.90;;;;;;5111858;28;20023;-79
2021/12/20 01:15:33;;;;;;;15.30;5.80;;;7.10;99.90;;;;;;5076622;28;20059;-79
2021/12/20 01:17:59;;;;;;;15.45;5.57;;;7.20;99.90;;;;;;5109363;28;20023;-79
2021/12/20 01:20:25;;;;;;;22.10;5.43;;;7.10;99.90;;;;;;5109276;28;20033;-79
2021/12/20 01:22:51;;;;;;;13.00;4.60;;;7.10;99.90;;;;;;5106128;28;20574;-79
2021/12/20 01:25:18;;;;;;;16.63;5.25;;;7.10;99.90;;;;;;5109552;28;20023;-79
2021/12/20 01:27:44;;;;;;;11.52;4.63;;;7.20;99.90;;;;;;5111103;28;20292;-79
2021/12/20 01:30:12;;;;;;;12.13;4.72;;;7.20;99.90;;;;;;5111364;28;20020;-79
2021/12/20 01:32:40;;;;;;;15.18;4.75;;;7.20;99.90;;;;;;5112175;28;20036;-79
2021/12/20 01:35:07;;;;;;;11.32;4.57;;;7.20;99.90;;;;;;5111942;28;20028;-79
2021/12/20 01:37:33;;;;;;;15.07;4.50;;;7.20;99.90;;;;;;5088650;28;20024;-79
2021/12/20 01:39:59;;;;;;;19.35;4.45;;;7.30;99.90;;;;;;5112454;28;20046;-79
2021/12/20 01:42:28;;;;;;;20.35;4.32;;;7.20;99.90;;;;;;5112167;28;20069;-79
2021/12/20 01:44:57;;;;;;;12.25;3.80;;;7.20;99.90;;;;;;5111873;28;20052;-79
2021/12/20 01:47:24;;;;;;;;;;;7.20;99.90;;;;;;5094785;28;20031;-79
2021/12/20 01:50:02;;;;;;;12.48;3.60;;;7.20;99.90;;;;;;5111621;28;19947;-79
2021/12/20 01:52:38;;;;;;;14.93;3.83;;;7.10;99.90;;;;;;5081226;28;20107;-79
2021/12/20 01:55:05;;;;;;;18.90;4.00;;;7.10;99.90;;;;;;5095415;28;20046;-79
2021/12/20 01:57:31;;;;;;;11.45;3.47;;;7.10;99.90;;;;;;5111835;28;20036;-79
2021/12/20 01:59:56;;;;;;;16.00;3.90;;;7.10;99.90;;;;;;5112023;28;20027;-79
2021/12/20 02:02:23;;;;;;;16.23;3.60;;;7.10;99.90;;;;;;5093973;28;20122;-79
2021/12/20 02:04:50;;;;;;;14.80;4.15;;;7.10;99.90;;;;;;5095836;28;20032;-79
2021/12/20 02:07:37;;;;;;;12.00;4.00;;;7.10;99.90;;;;;;5095307;28;20028;-79
2021/12/20 02:10:03;;;;;;;18.50;3.97;;;7.10;99.90;;;;;;5101211;28;20499;-79
2021/12/20 02:12:29;;;;;;;14.65;3.85;;;7.10;99.90;;;;;;5080522;28;20738;-79
2021/12/20 02:14:55;;;;;;;17.00;3.55;;;7.10;99.90;;;;;;5064050;28;20043;-79
2021/12/20 02:17:21;;;;;;;21.58;3.72;;;7.10;99.90;;;;;;5080810;28;20073;-79
2021/12/20 02:19:46;;;;;;;13.93;3.53;;;7.10;99.90;;;;;;5097924;28;20103;-79
2021/12/20 02:22:12;;;;;;;18.75;3.47;;;7.10;99.90;;;;;;5115400;28;20028;-79
2021/12/20 02:24:37;;;;;;;18.08;3.38;;;7.10;99.90;;;;;;5114896;28;20769;-79
2021/12/20 02:27:03;;;;;;;16.83;3.58;;;7.10;99.90;;;;;;5097565;28;20036;-79
2021/12/20 02:29:43;;;;;;;20.58;3.42;;;7.10;99.90;;;;;;5115450;28;20032;-79
2021/12/20 02:37:38;;;;;;;19.23;3.35;;;7.00;99.90;;;;;;5112348;28;20076;-75
2021/12/20 02:40:04;;;;;;;16.23;3.00;;;7.00;99.90;;;;;;5079691;28;20122;-76
2021/12/20 02:42:39;;;;;;;18.92;2.90;;;7.00;99.90;;;;;;5079794;28;20124;-76
2021/12/20 02:45:16;;;;;;;22.80;3.78;;;7.00;99.90;;;;;;5114596;28;20027;-75
2021/12/20 02:47:44;;;;;;;11.68;2.58;;;7.00;99.90;;;;;;5112803;28;20424;-75
2021/12/20 02:50:11;;;;;;;18.58;3.00;;;7.00;99.90;;;;;;5114700;28;20024;-76
2021/12/20 02:52:36;;;;;;;17.65;2.90;;;7.00;99.90;;;;;;5090613;28;20076;-76
2021/12/20 02:55:04;;;;;;;16.50;3.40;;;7.00;99.90;;;;;;5113791;28;20102;-76
2021/12/20 02:57:29;;;;;;;16.85;3.22;;;7.00;99.90;;;;;;5114128;28;20023;-75
2021/12/20 02:59:55;;;;;;;19.88;3.45;;;7.00;99.90;;;;;;5113810;28;20023;-76
2021/12/20 03:02:22;;;;;;;19.15;2.90;;;7.00;99.90;;;;;;5096353;28;20028;-75
2021/12/20 03:04:49;;;;;;;15.48;3.00;;;7.00;99.90;;;;;;5095766;28;20132;-76
2021/12/20 03:07:21;;;;;;;18.33;3.80;;;7.00;99.90;;;;;;5095649;28;20421;-75
2021/12/20 03:09:52;;;;;;;18.23;3.13;;;7.00;99.90;;;;;;5094835;28;20028;-75
2021/12/20 03:12:18;;;;;;;17.80;3.20;;;6.90;99.90;;;;;;5095179;28;20106;-75
2021/12/20 03:14:47;;;;;;;15.45;2.78;;;7.00;99.90;;;;;;5113659;28;20146;-76
2021/12/20 03:17:13;;;;;;;18.95;2.75;;;7.00;99.90;;;;;;5094469;28;20038;-75
2021/12/20 03:19:39;;;;;;;26.65;3.10;;;7.00;99.90;;;;;;5094993;28;20806;-75
2021/12/20 03:22:06;;;;;;;21.50;2.83;;;7.00;99.90;;;;;;5113714;28;20429;-75
2021/12/20 03:24:32;;;;;;;17.42;3.35;;;7.00;99.90;;;;;;5113506;28;20076;-76
2021/12/20 03:26:57;;;;;;;14.55;2.58;;;7.00;99.90;;;;;;5113426;28;20027;-76
2021/12/20 03:29:23;;;;;;;18.83;2.85;;;7.00;99.90;;;;;;5094879;28;20039;-76
2021/12/20 03:31:50;;;;;;;10.55;2.63;;;7.00;99.90;;;;;;5112941;28;20039;-75
2021/12/20 03:34:16;;;;;;;22.42;3.10;;;7.00;99.90;;;;;;5113485;28;20763;-75
2021/12/20 03:36:42;;;;;;;19.17;3.08;;;7.00;99.90;;;;;;5077918;28;20040;-75
2021/12/20 03:39:09;;;;;;;22.48;3.40;;;7.00;99.90;;;;;;5113182;28;20445;-75
2021/12/20 03:41:36;;;;;;;18.90;3.10;;;7.00;99.90;;;;;;5112740;28;20384;-75
2021/12/20 03:44:02;;;;;;;21.13;3.15;;;7.00;99.90;;;;;;5094616;28;20051;-76
2021/12/20 03:46:28;;;;;;;17.00;3.25;;;7.00;99.90;;;;;;5113064;28;20023;-76
2021/12/20 03:48:54;;;;;;;12.07;3.28;;;7.00;99.90;;;;;;5112653;28;20503;-76
2021/12/20 03:51:19;;;;;;;13.80;2.70;;;7.00;99.90;;;;;;5112548;28;20110;-76
2021/12/20 03:53:45;;;;;;;21.88;3.72;;;7.10;99.90;;;;;;5093313;28;20527;-75
2021/12/20 03:56:11;;;;;;;13.93;2.65;;;7.00;99.90;;;;;;5111775;28;20567;-75
2021/12/20 03:58:37;;;;;;;25.02;3.08;;;7.10;99.90;;;;;;5110456;28;20393;-75
2021/12/20 04:01:06;;;;;;;19.33;3.30;;;7.00;99.90;;;;;;5110910;28;20114;-75
2021/12/20 04:03:35;;;;;;;21.10;2.78;;;7.10;99.90;;;;;;5111603;28;20051;-75
2021/12/20 04:06:03;;;;;;;20.13;3.67;;;7.10;99.90;;;;;;5092748;28;20031;-75
2021/12/20 04:08:29;;;;;;;20.90;2.80;;;7.00;99.90;;;;;;5091687;28;20036;-75
2021/12/20 04:10:55;;;;;;;14.52;2.45;;;7.00;99.90;;;;;;5109726;28;20428;-76
2021/12/20 04:13:21;;;;;;;12.98;2.67;;;7.00;99.90;;;;;;5110519;28;20035;-75
2021/12/20 04:15:46;;;;;;;15.20;3.08;;;7.00;99.90;;;;;;5092439;28;20706;-75
2021/12/20 04:18:12;;;;;;;17.95;2.92;;;7.00;99.90;;;;;;5059258;28;20027;-75
2021/12/20 04:20:37;;;;;;;16.90;3.30;;;7.00;99.90;;;;;;5110699;28;20020;-76
2021/12/20 04:23:03;;;;;;;19.00;3.53;;;7.00;99.90;;;;;;5110170;28;20035;-75
2021/12/20 04:25:29;;;;;;;24.50;3.08;;;7.00;99.90;;;;;;5112015;28;20023;-75
2021/12/20 04:27:55;;;;;;;25.25;3.63;;;7.00;99.90;;;;;;5111669;28;20122;-75
2021/12/20 04:30:21;;;;;;;18.77;3.28;;;7.00;99.90;;;;;;5112003;28;20762;-76
2021/12/20 04:32:47;;;;;;;26.77;3.72;;;7.00;99.90;;;;;;5110261;28;20027;-75
2021/12/20 04:35:14;;;;;;;16.92;2.63;;;7.00;99.90;;;;;;5108854;28;20090;-76
2021/12/20 04:37:43;;;;;;;15.93;2.80;;;7.00;99.90;;;;;;5089707;28;20047;-75
2021/12/20 04:40:14;;;;;;;18.80;2.70;;;7.00;99.90;;;;;;5110813;28;20031;-75
2021/12/20 04:42:39;;;;;;;15.73;3.00;;;7.00;99.90;;;;;;5103295;28;20028;-76
2021/12/20 04:45:05;;;;;;;19.65;2.95;;;7.00;99.90;;;;;;5093527;28;20086;-75
2021/12/20 04:47:31;;;;;;;19.48;2.60;;;6.90;99.90;;;;;;5074399;28;20036;-76
2021/12/20 04:49:57;;;;;;;22.85;3.47;;;6.90;99.90;;;;;;5111723;28;20039;-75
2021/12/20 04:52:24;;;;;;;18.25;3.13;;;7.00;99.90;;;;;;5093606;28;20026;-76
2021/12/20 04:54:50;;;;;;;20.38;2.97;;;7.00;99.90;;;;;;5093787;28;20396;-75
2021/12/20 04:57:15;;;;;;;24.95;2.92;;;6.90;99.90;;;;;;5110936;28;20035;-75
2021/12/20 04:59:41;;;;;;;22.75;3.20;;;6.90;99.90;;;;;;5106020;28;20073;-76
2021/12/20 05:02:07;;;;;;;23.10;2.80;;;7.00;99.90;;;;;;5111565;28;20072;-75
2021/12/20 05:04:32;;;;;;;23.85;3.47;;;6.90;99.90;;;;;;5111352;28;20722;-75
2021/12/20 05:06:58;;;;;;;25.67;3.38;;;6.90;99.90;;;;;;5092831;28;20762;-75
2021/12/20 05:09:28;;;;;;;18.38;2.85;;;6.90;99.90;;;;;;5093463;28;20032;-76
2021/12/20 05:12:01;;;;;;;20.15;3.33;;;6.90;99.90;;;;;;5093743;28;20182;-75
2021/12/20 05:14:27;;;;;;;16.90;2.97;;;6.90;99.90;;;;;;5092354;28;20054;-75
2021/12/20 05:16:53;;;;;;;18.23;2.70;;;6.90;99.90;;;;;;5107439;28;20138;-75
2021/12/20 05:19:18;;;;;;;17.58;3.00;;;6.90;99.90;;;;;;5092073;28;20027;-76
2021/12/20 05:21:44;;;;;;;21.55;3.35;;;6.90;99.90;;;;;;5075566;28;20019;-75
2021/12/20 05:24:09;;;;;;;18.52;2.95;;;6.90;99.90;;;;;;5092384;28;20035;-75
2021/12/20 05:26:35;;;;;;;18.88;2.65;;;6.90;99.90;;;;;;5110107;28;20028;-75
2021/12/20 05:29:06;;;;;;;24.85;3.20;;;6.90;99.90;;;;;;5092235;28;20095;-75
2021/12/20 05:31:33;;;;;;;24.38;3.10;;;6.90;99.90;;;;;;5107349;28;20027;-76
2021/12/20 05:33:59;;;;;;;23.83;2.97;;;6.90;99.90;;;;;;5090345;28;20020;-76
2021/12/20 05:36:25;;;;;;;19.02;2.45;;;6.80;99.90;;;;;;5110158;28;20445;-76
2021/12/20 05:38:51;;;;;;;22.95;3.08;;;6.80;99.90;;;;;;5075801;28;20031;-76
2021/12/20 05:41:17;;;;;;;22.17;3.15;;;6.80;99.90;;;;;;5111169;28;20400;-75
2021/12/20 05:43:42;;;;;;;31.77;3.60;;;6.80;99.90;;;;;;5111328;28;20145;-76
2021/12/20 05:46:08;;;;;;;20.08;3.25;;;6.80;99.90;;;;;;5091149;28;20114;-75
2021/12/20 05:48:33;;;;;;;19.17;2.97;;;6.80;99.90;;;;;;5074491;28;20040;-75
2021/12/20 05:50:59;;;;;;;25.35;3.47;;;6.80;99.90;;;;;;5109368;28;20015;-76
2021/12/20 05:53:25;;;;;;;18.13;2.88;;;6.90;99.90;;;;;;5091673;28;20553;-76
2021/12/20 05:55:50;;;;;;;30.20;3.90;;;6.80;99.90;;;;;;5071738;28;20500;-76
2021/12/20 05:58:16;;;;;;;28.67;3.53;;;6.80;99.90;;;;;;5109626;28;20023;-76
2021/12/20 06:00:42;;;;;;;23.75;2.97;;;6.80;99.90;;;;;;5091150;28;20115;-76
2021/12/20 06:03:09;;;;;;;29.55;4.05;;;6.80;99.90;;;;;;5109620;28;20038;-75
2021/12/20 06:05:35;;;;;;;19.25;2.83;;;6.80;99.90;;;;;;5109006;28;20035;-76
2021/12/20 06:08:01;;;;;;;25.98;3.30;;;6.80;99.90;;;;;;5086434;28;20039;-75
2021/12/20 06:10:27;;;;;;;24.88;3.35;;;6.80;99.90;;;;;;5089730;28;20411;-75
2021/12/20 06:12:53;;;;;;;22.00;3.42;;;6.80;99.90;;;;;;5108191;28;20024;-76
2021/12/20 06:15:18;;;;;;;21.92;3.42;;;6.80;99.90;;;;;;5105683;28;20126;-76
2021/12/20 06:17:44;;;;;;;22.42;3.05;;;6.80;99.90;;;;;;5104755;28;20555;-76
2021/12/20 06:20:12;;;;;;;20.05;3.00;;;6.80;99.90;;;;;;5107925;28;20059;-76
2021/12/20 06:22:39;;;;;;;27.17;3.47;;;6.80;99.90;;;;;;5091453;28;20031;-76
2021/12/20 06:25:05;;;;;;;24.13;3.28;;;6.80;99.90;;;;;;5077130;28;20084;-79
2021/12/20 06:27:31;;;;;;;23.75;3.53;;;6.80;99.90;;;;;;5091025;28;20028;-80
2021/12/20 06:29:57;;;;;;;22.30;3.53;;;6.80;99.90;;;;;;5103034;28;20050;-80
2021/12/20 06:32:22;;;;;;;27.90;3.45;;;6.70;99.90;;;;;;5091485;28;20035;-80
2021/12/20 06:34:48;;;;;;;25.45;3.63;;;6.70;99.90;;;;;;5091360;28;20040;-80
2021/12/20 06:37:14;;;;;;;22.55;3.90;;;6.70;99.90;;;;;;5088095;28;20038;-79
2021/12/20 06:39:40;;;;;;;19.70;3.47;;;6.70;99.90;;;;;;5052929;28;20031;-80
2021/12/20 06:42:06;;;;;;;25.65;3.33;;;6.70;99.90;;;;;;5108431;28;20406;-80
2021/12/20 06:44:32;;;;;;;25.83;3.53;;;6.70;99.90;;;;;;5107976;28;20102;-80
2021/12/20 06:46:58;;;;;;;20.00;3.15;;;6.70;99.90;;;;;;5090625;28;20070;-80
2021/12/20 06:49:23;;;;;;;23.35;3.13;;;6.70;99.90;;;;;;5108832;28;20388;-80
2021/12/20 06:51:49;;;;;;;19.90;3.17;;;6.70;99.90;;;;;;5091619;28;20096;-81
2021/12/20 06:54:18;;;;;;;23.90;3.60;;;6.70;99.90;;;;;;5111527;28;20072;-79
2021/12/20 06:56:45;;;;;;;22.80;3.83;;;6.70;99.90;;;;;;5095512;28;20031;-80
2021/12/20 06:59:10;;;;;;;22.27;4.05;;;6.70;99.90;;;;;;5107988;28;20069;-80
2021/12/20 07:01:36;;;;;;;30.15;3.80;;;6.70;99.90;;;;;;5114736;28;20019;-79
2021/12/20 07:04:02;;;;;;;21.02;4.18;;;6.70;99.90;;;;;;5114094;28;20463;-80
2021/12/20 07:06:29;;;;;;;24.30;3.47;;;6.70;99.90;;;;;;5113860;28;20035;-80
2021/12/20 07:08:55;;;;;;;22.67;3.50;;;6.70;99.90;;;;;;5113491;28;20116;-79
2021/12/20 07:11:20;;;;;;;26.98;4.05;;;6.60;99.90;;;;;;5095099;28;20073;-80
2021/12/20 07:13:46;;;;;;;29.30;3.67;;;6.70;99.90;;;;;;5112581;28;20031;-80
2021/12/20 07:16:13;;;;;;;22.35;3.30;;;6.70;99.90;;;;;;5093777;28;20054;-79
2021/12/20 07:18:39;;;;;;;21.50;3.28;;;6.70;99.90;;;;;;5094789;28;20693;-80
2021/12/20 07:21:05;;;;;;;25.20;3.42;;;6.70;99.90;;;;;;5097748;28;20112;-80
2021/12/20 07:23:30;;;;;;;28.60;4.38;;;6.70;99.90;;;;;;5074895;28;20118;-79
2021/12/20 07:25:56;;;;;;;28.65;4.60;;;6.70;99.90;;;;;;5107780;28;20032;-79
2021/12/20 07:28:22;;;;;;;21.73;4.30;;;6.70;99.90;;;;;;5113598;28;20110;-79
2021/12/20 07:30:49;;;;;;;23.83;4.45;;;6.60;99.90;;;;;;5078383;28;20043;-79
2021/12/20 07:33:15;;;;;;;22.75;3.50;;;6.60;99.90;;;;;;5113744;28;20057;-79
2021/12/20 07:35:43;;;;;;;30.15;4.25;;;6.60;99.90;;;;;;5114022;28;20056;-79
2021/12/20 07:38:12;;;;;;;23.17;3.40;;;6.70;99.90;;;;;;5114621;28;20046;-79
2021/12/20 07:40:42;;;;;;;26.23;3.65;;;6.60;99.90;;;;;;5115149;28;20024;-79
2021/12/20 07:43:07;;;;;;;27.45;4.82;;;6.60;99.90;;;;;;5115133;28;20058;-79
2021/12/20 07:45:33;;;;;;;31.83;4.45;;;6.60;99.90;;;;;;5115261;28;20428;-79
2021/12/20 07:47:59;;;;;;;26.40;3.97;;;6.60;99.90;;;;;;5080184;28;20036;-79
2021/12/20 07:50:24;;;;;;;27.23;3.60;;;6.60;99.90;;;;;;5080011;28;20116;-79
2021/12/20 07:52:50;;;;;;;21.95;3.50;;;6.60;99.90;;;;;;5115173;28;20715;-79
2021/12/20 07:55:17;;;;;;;22.52;3.88;;;6.60;99.90;;;;;;5114863;28;20027;-79
2021/12/20 07:57:43;;;;;;;27.67;3.63;;;6.60;99.90;;;;;;5115015;28;20051;-79
2021/12/20 08:00:10;;;;;;;21.70;3.03;;;6.60;99.90;;;;;;5114366;28;20020;-79
2021/12/20 08:02:36;;;;;;;26.15;4.05;;;6.60;99.90;;;;;;5113983;28;20028;-79
2021/12/20 08:05:03;;;;;;;26.35;3.55;;;6.70;99.90;;;;;;5096017;28;20043;-79
2021/12/20 08:07:29;;;;;;;24.02;3.80;;;6.60;99.90;;;;;;5095610;28;20027;-79
2021/12/20 08:09:54;;;;;;;36.97;3.45;;;6.60;99.90;;;;;;5113129;28;20597;-79
2021/12/20 08:12:20;;;;;;;25.17;3.88;;;6.60;99.90;;;;;;5094348;28;20032;-79
2021/12/20 08:14:46;;;;;;;30.80;3.80;;;6.70;99.90;;;;;;5112317;28;20028;-79
2021/12/20 08:17:12;;;;;;;20.42;3.63;;;6.70;99.90;;;;;;5093407;28;20052;-79
2021/12/20 08:19:38;;;;;;;19.77;3.15;;;6.70;99.90;;;;;;5088162;28;20023;-79
2021/12/20 08:22:04;;;;;;;25.40;3.85;;;6.70;99.90;;;;;;5093984;28;20065;-79
2021/12/20 08:24:29;;;;;;;24.40;3.83;;;6.70;99.90;;;;;;5113956;28;20020;-80
2021/12/20 08:26:55;;;;;;;33.38;4.75;;;6.70;99.90;;;;;;5113892;28;20040;-80
2021/12/20 08:29:23;;;;;;;29.15;3.60;;;6.70;99.90;;;;;;5095490;28;20027;-80
2021/12/20 08:31:50;;;;;;;28.05;4.50;;;6.70;99.90;;;;;;5093711;28;20472;-80
2021/12/20 08:34:16;;;;;;;26.63;3.13;;;6.70;99.90;;;;;;5092602;28;20050;-80
2021/12/20 08:36:41;;;;;;;28.45;3.72;;;6.70;99.90;;;;;;5090814;28;20035;-80
2021/12/20 08:39:07;;;;;;;26.83;3.33;;;6.70;99.90;;;;;;5098263;28;20027;-80
2021/12/20 08:41:33;;;;;;;22.27;3.33;;;6.80;99.90;;;;;;5077230;28;20020;-80
2021/12/20 08:43:58;;;;;;;25.23;3.40;;;6.80;99.90;;;;;;5094954;28;20096;-80
2021/12/20 08:46:24;;;;;;;23.75;3.67;;;6.80;99.90;;;;;;5095608;28;20036;-80
2021/12/20 08:48:52;;;;;;;27.58;4.32;;;6.80;99.90;;;;;;5113639;28;20027;-80
2021/12/20 08:51:18;;;;;;;28.05;4.13;;;6.80;99.90;;;;;;5096031;28;20020;-80
2021/12/20 08:53:44;;;;;;;29.02;3.70;;;6.80;99.90;;;;;;5109127;28;20028;-80
2021/12/20 08:56:11;;;;;;;24.58;3.78;;;6.80;99.90;;;;;;5077030;28;20069;-80
2021/12/20 08:58:36;;;;;;;30.75;3.85;;;6.80;99.90;;;;;;5112380;28;20036;-81
2021/12/20 09:01:03;;;;;;;27.90;3.28;;;6.90;99.90;;;;;;5094950;28;20039;-80
2021/12/20 09:03:29;;;;;;;27.55;3.97;;;6.90;99.90;;;;;;5111563;28;20071;-80
2021/12/20 09:05:55;;;;;;;24.20;3.65;;;6.90;99.90;;;;;;5091294;28;20027;-80
2021/12/20 09:08:21;;;;;;;22.90;4.05;;;6.90;99.90;;;;;;5109208;28;20098;-80
2021/12/20 09:10:48;;;;;;;26.30;3.80;;;6.90;99.90;;;;;;5075213;28;20028;-79
2021/12/20 09:13:14;;;;;;;24.73;3.65;;;6.90;99.90;;;;;;5093907;28;20392;-79
2021/12/20 09:15:40;;;;;;;27.90;4.18;;;6.90;99.90;;;;;;5107788;28;20040;-80
2021/12/20 09:18:08;;;;;;;30.35;3.65;;;6.90;99.90;;;;;;5112403;28;20472;-79
2021/12/20 09:20:36;;;;;;;32.20;4.20;;;7.00;99.90;;;;;;5093457;28;20062;-80
2021/12/20 09:23:06;;;;;;;26.33;3.85;;;7.00;99.90;;;;;;5112772;28;20111;-80
2021/12/20 09:25:35;;;;;;;20.20;3.40;;;7.10;99.90;;;;;;5076024;28;20020;-80
2021/12/20 09:28:03;;;;;;;27.77;3.83;;;7.10;99.90;;;;;;5092069;28;20019;-80
2021/12/20 09:30:30;;;;;;;30.15;4.82;;;7.10;99.90;;;;;;5107054;28;20552;-80
2021/12/20 09:32:56;;;;;;;32.22;3.50;;;7.10;99.90;;;;;;5112023;28;20077;-80
2021/12/20 09:35:21;;;;;;;23.30;3.70;;;7.20;99.90;;;;;;5107630;28;20035;-80
2021/12/20 09:37:50;;;;;;;26.58;4.53;;;7.20;99.90;;;;;;5107341;28;20573;-80
2021/12/20 09:40:19;;;;;;;33.42;4.28;;;7.10;99.90;;;;;;5111986;28;20016;-80
2021/12/20 09:42:52;;;;;;;31.20;4.95;;;7.10;99.90;;;;;;5107035;28;20034;-80
2021/12/20 09:45:20;;;;;;;31.23;4.82;;;7.10;99.80;;;;;;5095440;28;20021;-80
2021/12/20 09:47:46;;;;;;;24.23;4.13;;;7.10;99.80;;;;;;5089012;28;20047;-79
2021/12/20 09:50:15;;;;;;;25.60;4.22;;;7.10;99.70;;;;;;5084330;28;20092;-79
2021/12/20 09:52:44;;;;;;;;;;;7.10;99.70;;;;;;5089457;28;20025;-79
2021/12/20 09:55:10;;;;;;;;;;;7.10;99.70;;;;;;5113091;28;19919;-79
2021/12/20 09:57:37;;;;;;;27.15;4.45;;;7.10;99.70;;;;;;5094181;28;19992;-79
2021/12/20 10:00:05;;;;;;;26.77;4.00;;;7.10;99.80;;;;;;5070739;28;20120;-79
2021/12/20 10:02:31;;;;;;;25.50;3.75;;;7.10;99.90;;;;;;5092172;28;20093;-79
2021/12/20 10:04:56;;;;;;;28.30;4.60;;;7.20;99.90;;;;;;5095898;28;20023;-79
2021/12/20 10:07:25;;;;;;;30.55;4.80;;;7.30;99.90;;;;;;5110578;28;20020;-79
2021/12/20 10:09:51;;;;;;;28.02;5.18;;;7.30;99.90;;;;;;5091141;28;20543;-80
2021/12/20 10:12:27;;;;;;;34.78;5.18;;;7.30;99.80;;;;;;5091257;28;20065;-79
2021/12/20 10:15:06;;;;;;;30.98;4.47;;;7.30;99.80;;;;;;5110638;28;20088;-80
2021/12/20 10:17:59;;;;;;;31.98;4.50;;;7.40;99.80;;;;;;5110655;28;20059;-79
2021/12/20 10:20:29;;;;;;;34.13;4.82;;;7.40;99.60;;;;;;5110089;28;20027;-79
2021/12/20 10:23:13;;;;;;;26.95;4.30;;;7.40;99.60;;;;;;5110164;28;20019;-79
2021/12/20 10:25:41;;;;;;;41.20;5.63;;;7.40;99.60;;;;;;5112763;28;20024;-79
2021/12/20 10:28:08;;;;;;;37.15;5.32;;;7.40;99.70;;;;;;5097969;28;20035;-79
2021/12/20 10:30:43;;;;;;;32.22;5.45;;;7.40;99.60;;;;;;5114784;28;20055;-79
2021/12/20 10:33:12;;;;;;;35.55;5.72;;;7.40;99.50;;;;;;5098194;28;20096;-79
2021/12/20 10:35:53;;;;;;;39.78;6.50;;;7.40;99.50;;;;;;5116348;28;20429;-80
2021/12/20 10:38:26;;;;;;;34.30;5.47;;;7.40;99.50;;;;;;5113018;28;20028;-79
2021/12/20 10:41:18;;;;;;;37.08;4.95;;;7.40;99.40;;;;;;5113793;28;20019;-79
2021/12/20 10:43:54;;;;;;;38.63;6.13;;;7.50;99.50;;;;;;5115924;28;20027;-79
2021/12/20 10:46:29;;;;;;;32.47;5.32;;;7.50;99.40;;;;;;5115674;28;20023;-79
2021/12/20 10:49:06;;;;;;;37.13;5.90;;;7.40;99.20;;;;;;5114211;28;20019;-79
2021/12/20 10:51:55;;;;;;;38.22;6.28;;;7.40;99.10;;;;;;5094947;28;20111;-79
2021/12/20 10:54:25;;;;;;;39.60;5.75;;;7.50;99.20;;;;;;5093060;28;20042;-79
2021/12/20 10:56:57;;;;;;;36.53;6.03;;;7.50;99.20;;;;;;5113742;28;20040;-79
2021/12/20 10:59:25;;;;;;;32.50;5.65;;;7.50;99.20;;;;;;5112961;28;20057;-80
2021/12/20 11:02:41;;;;;;;35.13;5.43;;;7.50;99.10;;;;;;5115741;28;20375;-80
2021/12/20 11:04:56;;;;;;;33.15;6.10;;;7.60;99.00;;;;;;5106695;28;20491;-79
2021/12/20 11:10:03;;;;;;;41.47;6.05;;;7.60;98.80;;;;;;5112545;28;20036;-79
2021/12/20 11:12:31;;;;;;;33.10;6.13;;;7.70;98.80;;;;;;5098944;28;20055;-79
2021/12/20 11:15:05;;;;;;;43.83;7.85;;;7.70;98.70;;;;;;5093474;28;20034;-79
2021/12/20 11:17:30;;;;;;;36.58;7.28;;;7.80;98.60;;;;;;5091977;28;20048;-80
2021/12/20 11:19:58;;;;;;;40.70;6.32;;;7.80;98.30;;;;;;5094340;28;20032;-79
2021/12/20 11:22:29;;;;;;;44.72;7.15;;;7.90;98.20;;;;;;5092708;28;20031;-79
2021/12/20 11:25:04;;;;;;;35.28;6.30;;;7.90;98.00;;;;;;5091826;28;20028;-79
2021/12/20 11:27:46;;;;;;;35.53;7.03;;;7.90;97.90;;;;;;5098454;28;20042;-79
2021/12/20 11:30:16;;;;;;;36.83;7.35;;;7.90;97.70;;;;;;5103755;28;20078;-80
2021/12/20 11:32:43;;;;;;;37.05;6.40;;;8.00;97.30;;;;;;5087194;28;20063;-79
2021/12/20 11:35:08;;;;;;;29.88;6.28;;;8.00;97.20;;;;;;5103702;28;20043;-78
2021/12/20 11:37:34;;;;;;;50.53;7.00;;;8.00;97.00;;;;;;5109198;28;20035;-77
2021/12/20 11:40:03;;;;;;;33.53;6.60;;;8.00;97.00;;;;;;5109001;28;20047;-78
2021/12/20 11:42:29;;;;;;;29.67;6.07;;;8.10;96.70;;;;;;5084595;28;20035;-78
2021/12/20 11:44:57;;;;;;;41.10;8.90;;;8.20;96.40;;;;;;5096099;28;20035;-78
2021/12/20 11:47:41;;;;;;;33.03;10.88;;;8.50;95.50;;;;;;5113103;28;20034;-78
2021/12/20 11:50:16;;;;;;;41.75;9.27;;;9.00;94.10;;;;;;5113236;28;20028;-78
2021/12/20 11:52:45;;;;;;;32.28;8.00;;;9.20;93.40;;;;;;5092020;28;20020;-78
2021/12/20 11:55:22;;;;;;;32.63;9.98;;;8.90;93.40;;;;;;5113446;28;20019;-78
2021/12/20 11:57:56;;;;;;;34.25;8.23;;;8.80;93.70;;;;;;5113631;28;20035;-78
2021/12/20 12:00:34;;;;;;;33.92;8.15;;;9.30;92.70;;;;;;5092437;28;20024;-78
2021/12/20 12:03:03;;;;;;;31.83;8.27;;;10.00;90.60;;;;;;5079493;28;20081;-78
2021/12/20 12:05:52;;;;;;;36.17;8.32;;;10.70;88.70;;;;;;5113613;28;20035;-79
2021/12/20 12:08:42;;;;;;;31.85;7.93;;;11.00;84.80;;;;;;5113589;28;20102;-78
2021/12/20 12:11:08;;;;;;;31.70;7.82;;;11.00;85.20;;;;;;5099655;28;20149;-79
2021/12/20 12:14:05;;;;;;;42.33;8.43;;;10.80;86.10;;;;;;5112113;28;20837;-76
2021/12/20 12:16:50;;;;;;;32.28;7.35;;;11.00;85.10;;;;;;5110939;28;20062;-76
2021/12/20 12:19:35;;;;;;;28.55;7.18;;;10.90;85.00;;;;;;5079010;28;20106;-76
2021/12/20 12:22:01;;;;;;;35.28;8.10;;;10.40;87.10;;;;;;5094958;28;20023;-76
2021/12/20 12:24:45;;;;;;;23.67;7.28;;;9.90;88.90;;;;;;5113541;28;20062;-76
2021/12/20 12:27:24;;;;;;;32.92;7.50;;;10.30;87.90;;;;;;5112625;28;20031;-76
2021/12/20 12:30:14;;;;;;;33.30;7.97;;;10.90;84.10;;;;;;5113181;28;20140;-76
2021/12/20 12:32:48;;;;;;;35.67;8.13;;;11.30;81.30;;;;;;5113617;28;20489;-76
2021/12/20 12:35:39;;;;;;;29.40;6.82;;;11.30;81.30;;;;;;5113160;28;20041;-76
2021/12/20 12:38:16;;;;;;;29.17;6.60;;;10.90;82.90;;;;;;5091035;28;20035;-76
2021/12/20 12:40:45;;;;;;;36.95;6.93;;;10.60;85.00;;;;;;5091724;28;20020;-76
2021/12/20 12:43:14;;;;;;;40.90;8.20;;;10.20;86.80;;;;;;5075361;28;20043;-76
2021/12/20 12:45:53;;;;;;;28.67;7.00;;;9.90;88.50;;;;;;5110488;28;20059;-77
2021/12/20 12:48:38;;;;;;;30.30;7.50;;;9.60;90.10;;;;;;5092271;28;20035;-76
2021/12/20 12:51:24;;;;;;;36.97;8.55;;;9.30;90.90;;;;;;5091926;28;20111;-76
2021/12/20 12:53:54;;;;;;;38.03;8.40;;;9.00;91.40;;;;;;5109854;28;20023;-76
2021/12/20 12:56:25;;;;;;;29.17;7.95;;;8.90;91.80;;;;;;5104608;28;20032;-76
2021/12/20 12:59:16;;;;;;;31.00;7.00;;;8.70;92.00;;;;;;5107166;28;20386;-76
2021/12/20 13:01:58;;;;;;;31.92;7.68;;;8.80;92.10;;;;;;5109988;28;20028;-76
2021/12/20 13:04:47;;;;;;;29.70;7.65;;;9.10;91.60;;;;;;5089658;28;20241;-77
2021/12/20 13:07:17;;;;;;;28.48;7.50;;;9.40;91.20;;;;;;5110149;28;20027;-76